createdAt,value
2018-01-14T00:00:40.661Z,5.15
2018-01-14T00:01:40.394Z,5.12
2018-01-14T00:02:40.857Z,5.12
2018-01-14T00:03:40.880Z,4.97
2018-01-14T00:04:40.840Z,4.97
2018-01-14T00:05:40.593Z,4.94
2018-01-14T00:06:40.596Z,4.92
2018-01-14T00:07:40.322Z,4.94
2018-01-14T00:08:40.576Z,4.97
2018-01-14T00:09:40.567Z,4.97
2018-01-14T00:10:40.798Z,4.89
2018-01-14T00:11:40.549Z,4.92
2018-01-14T00:12:40.281Z,4.8
2018-01-14T00:13:40.261Z,4.89
2018-01-14T00:14:43.472Z,4.84
2018-01-14T00:15:40.766Z,4.89
2018-01-14T00:16:40.806Z,4.9
2018-01-14T00:17:40.495Z,4.94
2018-01-14T00:18:40.479Z,4.94
2018-01-14T00:19:40.742Z,4.87
2018-01-14T00:20:40.475Z,4.89
2018-01-14T00:21:40.717Z,4.9
2018-01-14T00:22:40.465Z,4.9
2018-01-14T00:23:40.446Z,4.93
2018-01-14T00:24:40.182Z,4.87
2018-01-14T00:25:40.431Z,4.89
2018-01-14T00:26:40.675Z,4.87
2018-01-14T00:27:40.676Z,4.75
2018-01-14T00:28:40.398Z,4.9
2018-01-14T00:29:40.636Z,4.86
2018-01-14T00:30:40.976Z,4.8
2018-01-14T00:31:40.369Z,4.96
2018-01-14T00:32:40.361Z,4.9
2018-01-14T00:33:40.358Z,4.96
2018-01-14T00:34:40.095Z,4.93
2018-01-14T00:35:40.081Z,4.84
2018-01-14T00:36:40.340Z,4.86
2018-01-14T00:37:40.325Z,4.78
2018-01-14T00:38:40.304Z,4.75
2018-01-14T00:39:40.576Z,4.74
2018-01-14T00:40:40.047Z,4.78
2018-01-14T00:41:40.302Z,4.75
2018-01-14T00:42:40.275Z,4.73
2018-01-14T00:43:40.281Z,4.78
2018-01-14T00:44:40.522Z,4.71
2018-01-14T00:45:40.952Z,4.71
2018-01-14T00:46:40.241Z,4.73
2018-01-14T00:47:40.233Z,4.68
2018-01-14T00:48:40.485Z,4.67
2018-01-14T00:49:40.225Z,4.66
2018-01-14T00:50:40.224Z,4.63
2018-01-14T00:51:40.202Z,4.66
2018-01-14T00:52:40.465Z,4.68
2018-01-14T00:53:40.187Z,4.67
2018-01-14T00:54:40.190Z,4.62
2018-01-14T00:55:40.421Z,4.63
2018-01-14T00:56:40.226Z,4.62
2018-01-14T00:57:40.402Z,4.63
2018-01-14T00:58:40.144Z,4.6
2018-01-14T00:59:40.382Z,4.66
2018-01-14T01:00:44.139Z,4.66
2018-01-14T01:01:40.118Z,4.56
2018-01-14T01:02:40.374Z,4.66
2018-01-14T01:03:40.353Z,4.63
2018-01-14T01:04:39.850Z,4.68
2018-01-14T01:05:40.348Z,4.7
2018-01-14T01:06:40.324Z,4.63
2018-01-14T01:07:40.066Z,4.62
2018-01-14T01:08:40.060Z,4.63
2018-01-14T01:09:40.065Z,4.6
2018-01-14T01:10:40.301Z,4.73
2018-01-14T01:11:40.288Z,4.73
2018-01-14T01:12:40.025Z,4.73
2018-01-14T01:13:40.271Z,4.73
2018-01-14T01:14:40.003Z,4.63
2018-01-14T01:15:40.249Z,4.62
2018-01-14T01:16:40.242Z,4.63
2018-01-14T01:17:40.234Z,4.55
2018-01-14T01:18:39.728Z,4.62
2018-01-14T01:19:39.967Z,4.55
2018-01-14T01:20:39.952Z,4.5
2018-01-14T01:21:40.194Z,4.5
2018-01-14T01:22:39.941Z,4.58
2018-01-14T01:23:40.192Z,4.68
2018-01-14T01:24:40.214Z,4.59
2018-01-14T01:25:40.159Z,4.58
2018-01-14T01:26:39.901Z,4.63
2018-01-14T01:27:40.143Z,4.6
2018-01-14T01:28:39.892Z,4.66
2018-01-14T01:29:40.137Z,4.6
2018-01-14T01:30:40.129Z,4.63
2018-01-14T01:31:39.869Z,4.58
2018-01-14T01:32:40.100Z,4.7
2018-01-14T01:33:39.848Z,4.62
2018-01-14T01:34:40.086Z,4.74
2018-01-14T01:35:39.843Z,4.71
2018-01-14T01:36:40.078Z,4.78
2018-01-14T01:37:40.096Z,4.77
2018-01-14T01:38:39.601Z,4.71
2018-01-14T01:39:40.043Z,4.73
2018-01-14T01:40:39.788Z,4.75
2018-01-14T01:41:39.527Z,4.75
2018-01-14T01:42:39.784Z,4.86
2018-01-14T01:43:40.019Z,4.87
2018-01-14T01:44:40.013Z,4.92
2018-01-14T01:45:39.993Z,4.87
2018-01-14T01:46:43.988Z,4.82
2018-01-14T01:47:39.976Z,4.86
2018-01-14T01:48:39.966Z,4.86
2018-01-14T01:49:39.960Z,4.82
2018-01-14T01:50:39.953Z,4.82
2018-01-14T01:51:39.691Z,4.78
2018-01-14T01:52:39.682Z,4.71
2018-01-14T01:53:39.922Z,4.73
2018-01-14T01:54:39.925Z,4.78
2018-01-14T01:55:39.408Z,4.86
2018-01-14T01:56:39.395Z,4.82
2018-01-14T01:57:39.388Z,4.89
2018-01-14T01:58:39.635Z,4.94
2018-01-14T01:59:39.647Z,4.99
2018-01-14T02:00:39.617Z,4.9
2018-01-14T02:01:40.227Z,4.94
2018-01-14T02:02:39.872Z,4.92
2018-01-14T02:03:39.854Z,4.89
2018-01-14T02:04:39.590Z,4.86
2018-01-14T02:05:39.570Z,4.84
2018-01-14T02:06:39.316Z,4.87
2018-01-14T02:07:39.562Z,4.75
2018-01-14T02:08:39.312Z,4.75
2018-01-14T02:09:39.542Z,4.75
2018-01-14T02:10:39.531Z,4.73
2018-01-14T02:11:39.520Z,4.73
2018-01-14T02:12:39.516Z,4.56
2018-01-14T02:13:39.513Z,4.68
2018-01-14T02:14:39.496Z,4.6
2018-01-14T02:15:39.490Z,4.68
2018-01-14T02:16:39.735Z,4.67
2018-01-14T02:17:39.471Z,4.7
2018-01-14T02:18:39.715Z,4.6
2018-01-14T02:19:39.454Z,4.66
2018-01-14T02:20:39.205Z,4.62
2018-01-14T02:21:39.689Z,4.59
2018-01-14T02:22:39.443Z,4.67
2018-01-14T02:23:39.168Z,4.71
2018-01-14T02:24:39.675Z,4.73
2018-01-14T02:25:39.658Z,4.78
2018-01-14T02:26:39.656Z,4.73
2018-01-14T02:27:39.388Z,4.77
2018-01-14T02:28:39.631Z,4.73
2018-01-14T02:29:39.625Z,4.78
2018-01-14T02:30:39.616Z,4.74
2018-01-14T02:31:39.105Z,4.74
2018-01-14T02:32:42.056Z,4.73
2018-01-14T02:33:39.090Z,4.8
2018-01-14T02:34:39.578Z,4.75
2018-01-14T02:35:39.328Z,4.71
2018-01-14T02:36:39.562Z,4.75
2018-01-14T02:37:39.555Z,4.74
2018-01-14T02:38:39.552Z,4.62
2018-01-14T02:39:39.284Z,4.67
2018-01-14T02:40:39.040Z,4.6
2018-01-14T02:41:39.525Z,4.63
2018-01-14T02:42:39.517Z,4.59
2018-01-14T02:43:39.255Z,4.5
2018-01-14T02:44:39.504Z,4.49
2018-01-14T02:45:39.487Z,4.49
2018-01-14T02:46:38.989Z,4.63
2018-01-14T02:47:39.782Z,4.67
2018-01-14T02:48:39.211Z,4.68
2018-01-14T02:49:39.205Z,4.6
2018-01-14T02:50:39.452Z,4.63
2018-01-14T02:51:39.186Z,4.66
2018-01-14T02:52:39.184Z,4.49
2018-01-14T02:53:39.167Z,4.6
2018-01-14T02:54:39.171Z,4.52
2018-01-14T02:55:39.150Z,4.6
2018-01-14T02:56:39.395Z,4.63
2018-01-14T02:57:38.890Z,4.6
2018-01-14T02:58:39.126Z,4.56
2018-01-14T02:59:39.124Z,4.6
2018-01-14T03:00:39.360Z,4.56
2018-01-14T03:01:39.109Z,4.6
2018-01-14T03:02:39.107Z,4.67
2018-01-14T03:03:39.337Z,4.66
2018-01-14T03:04:39.326Z,4.6
2018-01-14T03:05:39.326Z,4.63
2018-01-14T03:06:39.307Z,4.6
2018-01-14T03:07:39.067Z,4.68
2018-01-14T03:08:39.044Z,4.66
2018-01-14T03:09:39.041Z,4.66
2018-01-14T03:10:39.288Z,4.59
2018-01-14T03:11:39.270Z,4.6
2018-01-14T03:12:39.262Z,4.6
2018-01-14T03:13:39.261Z,4.66
2018-01-14T03:14:38.984Z,4.62
2018-01-14T03:15:38.985Z,4.59
2018-01-14T03:16:39.228Z,4.59
2018-01-14T03:17:38.971Z,4.73
2018-01-14T03:18:38.959Z,4.59
2018-01-14T03:19:38.945Z,4.75
2018-01-14T03:20:38.938Z,4.7
2018-01-14T03:21:38.940Z,4.66
2018-01-14T03:22:38.915Z,4.6
2018-01-14T03:23:38.912Z,4.55
2018-01-14T03:24:39.156Z,4.56
2018-01-14T03:25:39.149Z,4.52
2018-01-14T03:26:38.892Z,4.42
2018-01-14T03:27:39.142Z,4.4
2018-01-14T03:28:38.874Z,4.35
2018-01-14T03:29:38.859Z,4.4
2018-01-14T03:30:39.107Z,4.38
2018-01-14T03:31:38.607Z,4.48
2018-01-14T03:32:38.861Z,4.53
2018-01-14T03:33:38.845Z,4.5
2018-01-14T03:34:38.823Z,4.55
2018-01-14T03:35:38.822Z,4.58
2018-01-14T03:36:38.809Z,4.5
2018-01-14T03:37:39.045Z,4.49
2018-01-14T03:38:38.533Z,4.52
2018-01-14T03:39:39.028Z,4.49
2018-01-14T03:40:38.765Z,4.55
2018-01-14T03:41:38.826Z,4.55
2018-01-14T03:42:38.570Z,4.55
2018-01-14T03:43:38.996Z,4.48
2018-01-14T03:44:38.989Z,4.48
2018-01-14T03:45:38.725Z,4.49
2018-01-14T03:46:38.723Z,4.53
2018-01-14T03:47:38.966Z,4.52
2018-01-14T03:48:38.702Z,4.52
2018-01-14T03:49:38.689Z,4.44
2018-01-14T03:50:38.435Z,4.45
2018-01-14T03:51:38.955Z,4.35
2018-01-14T03:52:38.916Z,4.37
2018-01-14T03:53:38.905Z,4.23
2018-01-14T03:54:38.898Z,4.3
2018-01-14T03:55:38.649Z,4.26
2018-01-14T03:56:38.395Z,4.23
2018-01-14T03:57:38.875Z,4.26
2018-01-14T03:58:38.863Z,4.34
2018-01-14T03:59:38.602Z,4.35
2018-01-14T04:00:38.597Z,4.38
2018-01-14T04:01:38.858Z,4.34
2018-01-14T04:02:38.828Z,4.4
2018-01-14T04:03:38.574Z,4.34
2018-01-14T04:04:38.575Z,4.52
2018-01-14T04:05:38.549Z,4.52
2018-01-14T04:06:38.574Z,4.52
2018-01-14T04:07:38.542Z,4.53
2018-01-14T04:08:38.290Z,4.49
2018-01-14T04:09:38.301Z,4.38
2018-01-14T04:10:38.514Z,4.38
2018-01-14T04:11:38.768Z,4.4
2018-01-14T04:12:38.756Z,4.3
2018-01-14T04:13:38.579Z,4.35
2018-01-14T04:14:38.724Z,4.32
2018-01-14T04:15:38.729Z,4.4
2018-01-14T04:16:38.725Z,4.37
2018-01-14T04:17:38.466Z,4.35
2018-01-14T04:18:39.830Z,4.26
2018-01-14T04:19:38.684Z,4.28
2018-01-14T04:20:38.423Z,4.24
2018-01-14T04:21:38.433Z,4.16
2018-01-14T04:22:38.422Z,4.28
2018-01-14T04:23:39.492Z,4.22
2018-01-14T04:24:38.395Z,4.17
2018-01-14T04:25:38.403Z,4.2
2018-01-14T04:26:38.670Z,4.24
2018-01-14T04:27:38.365Z,4.1
2018-01-14T04:28:38.613Z,4.08
2018-01-14T04:29:38.598Z,4.05
2018-01-14T04:30:38.091Z,4.13
2018-01-14T04:31:38.612Z,4.16
2018-01-14T04:32:38.572Z,4.1
2018-01-14T04:33:38.570Z,4.16
2018-01-14T04:34:38.565Z,4.19
2018-01-14T04:35:38.554Z,4.08
2018-01-14T04:36:38.539Z,4.05
2018-01-14T04:37:38.526Z,4.2
2018-01-14T04:38:38.264Z,4.22
2018-01-14T04:39:38.017Z,4.16
2018-01-14T04:40:38.273Z,4.16
2018-01-14T04:41:38.302Z,4.14
2018-01-14T04:42:37.989Z,4.1
2018-01-14T04:43:38.218Z,4.12
2018-01-14T04:44:38.517Z,4.12
2018-01-14T04:45:38.206Z,4.08
2018-01-14T04:46:38.455Z,4.1
2018-01-14T04:47:38.186Z,4.19
2018-01-14T04:48:38.428Z,4.14
2018-01-14T04:49:38.417Z,4.19
2018-01-14T04:50:38.407Z,4.3
2018-01-14T04:51:38.153Z,4.22
2018-01-14T04:52:38.142Z,4.31
2018-01-14T04:53:38.131Z,4.26
2018-01-14T04:54:38.394Z,4.24
2018-01-14T04:55:38.115Z,4.2
2018-01-14T04:56:37.866Z,4.23
2018-01-14T04:57:38.347Z,4.16
2018-01-14T04:58:38.345Z,4.12
2018-01-14T04:59:38.334Z,4.12
2018-01-14T05:00:38.070Z,4.02
2018-01-14T05:01:38.077Z,4.02
2018-01-14T05:02:38.304Z,4.05
2018-01-14T05:03:38.307Z,4.17
2018-01-14T05:04:38.039Z,4.16
2018-01-14T05:05:38.026Z,4.14
2018-01-14T05:06:37.775Z,4.26
2018-01-14T05:07:38.262Z,4.22
2018-01-14T05:08:38.259Z,4.26
2018-01-14T05:09:38.304Z,4.24
2018-01-14T05:10:37.986Z,4.23
2018-01-14T05:11:37.980Z,4.26
2018-01-14T05:12:37.717Z,4.35
2018-01-14T05:13:37.960Z,4.35
2018-01-14T05:14:38.206Z,4.28
2018-01-14T05:15:37.944Z,4.26
2018-01-14T05:16:37.935Z,4.34
2018-01-14T05:17:38.172Z,4.4
2018-01-14T05:18:38.165Z,4.4
2018-01-14T05:19:40.356Z,4.44
2018-01-14T05:20:38.205Z,4.41
2018-01-14T05:21:37.909Z,4.4
2018-01-14T05:22:37.872Z,4.4
2018-01-14T05:23:37.868Z,4.4
2018-01-14T05:24:37.857Z,4.44
2018-01-14T05:25:37.854Z,4.42
2018-01-14T05:26:37.845Z,4.45
2018-01-14T05:27:37.832Z,4.55
2018-01-14T05:28:37.579Z,4.53
2018-01-14T05:29:38.074Z,4.6
2018-01-14T05:30:37.809Z,4.53
2018-01-14T05:31:37.551Z,4.55
2018-01-14T05:32:38.041Z,4.59
2018-01-14T05:33:38.047Z,4.62
2018-01-14T05:34:37.770Z,4.6
2018-01-14T05:35:37.830Z,4.55
2018-01-14T05:36:37.775Z,4.56
2018-01-14T05:37:37.744Z,4.5
2018-01-14T05:38:37.993Z,4.55
2018-01-14T05:39:37.730Z,4.55
2018-01-14T05:40:37.971Z,4.53
2018-01-14T05:41:37.968Z,4.52
2018-01-14T05:42:37.965Z,4.48
2018-01-14T05:43:37.954Z,4.48
2018-01-14T05:44:37.943Z,4.45
2018-01-14T05:45:37.931Z,4.53
2018-01-14T05:46:37.919Z,4.42
2018-01-14T05:47:37.918Z,4.49
2018-01-14T05:48:37.649Z,4.52
2018-01-14T05:49:39.696Z,4.49
2018-01-14T05:50:37.632Z,4.48
2018-01-14T05:51:37.880Z,4.49
2018-01-14T05:52:37.623Z,4.44
2018-01-14T05:53:37.863Z,4.52
2018-01-14T05:54:37.621Z,4.52
2018-01-14T05:55:37.855Z,4.41
2018-01-14T05:56:37.588Z,4.32
2018-01-14T05:57:37.583Z,4.31
2018-01-14T05:58:37.818Z,4.13
2018-01-14T05:59:37.810Z,4.17
2018-01-14T06:00:37.802Z,4.08
2018-01-14T06:01:37.546Z,4.08
2018-01-14T06:02:37.546Z,4.05
2018-01-14T06:03:37.523Z,4.06
2018-01-14T06:04:38.067Z,4.02
2018-01-14T06:05:37.757Z,4.02
2018-01-14T06:06:37.508Z,4.06
2018-01-14T06:07:37.747Z,4.04
2018-01-14T06:08:37.735Z,4.01
2018-01-14T06:09:37.485Z,4.01
2018-01-14T06:10:37.461Z,3.99
2018-01-14T06:11:37.203Z,3.98
2018-01-14T06:12:37.451Z,3.96
2018-01-14T06:13:37.430Z,3.98
2018-01-14T06:14:37.434Z,3.98
2018-01-14T06:15:37.667Z,3.91
2018-01-14T06:16:37.662Z,3.94
2018-01-14T06:17:37.405Z,3.87
2018-01-14T06:18:37.390Z,3.88
2018-01-14T06:19:37.632Z,3.84
2018-01-14T06:20:37.626Z,3.88
2018-01-14T06:21:37.367Z,3.86
2018-01-14T06:22:37.622Z,3.95
2018-01-14T06:23:37.616Z,3.88
2018-01-14T06:24:37.616Z,3.86
2018-01-14T06:25:37.585Z,3.81
2018-01-14T06:26:37.581Z,3.91
2018-01-14T06:27:37.582Z,3.96
2018-01-14T06:28:37.300Z,3.84
2018-01-14T06:29:37.061Z,3.86
2018-01-14T06:30:37.561Z,3.84
2018-01-14T06:31:37.274Z,3.86
2018-01-14T06:32:37.526Z,3.86
2018-01-14T06:33:37.275Z,3.81
2018-01-14T06:34:37.252Z,3.81
2018-01-14T06:35:37.488Z,3.95
2018-01-14T06:36:36.999Z,3.88
2018-01-14T06:37:37.501Z,3.96
2018-01-14T06:38:37.222Z,4.04
2018-01-14T06:39:37.213Z,4.02
2018-01-14T06:40:36.955Z,3.95
2018-01-14T06:41:37.439Z,3.96
2018-01-14T06:42:37.429Z,3.99
2018-01-14T06:43:36.928Z,3.91
2018-01-14T06:44:37.417Z,3.84
2018-01-14T06:45:37.150Z,3.88
2018-01-14T06:46:37.393Z,3.83
2018-01-14T06:47:37.395Z,3.86
2018-01-14T06:48:36.871Z,3.84
2018-01-14T06:49:37.381Z,3.88
2018-01-14T06:50:38.356Z,3.84
2018-01-14T06:51:36.843Z,3.8
2018-01-14T06:52:37.347Z,3.84
2018-01-14T06:53:37.083Z,3.87
2018-01-14T06:54:37.103Z,3.83
2018-01-14T06:55:38.127Z,3.84
2018-01-14T06:56:37.055Z,3.83
2018-01-14T06:57:37.046Z,3.8
2018-01-14T06:58:37.068Z,3.8
2018-01-14T06:59:37.303Z,3.77
2018-01-14T07:00:37.024Z,3.77
2018-01-14T07:01:37.268Z,3.83
2018-01-14T07:02:37.031Z,3.88
2018-01-14T07:03:37.013Z,3.91
2018-01-14T07:04:36.977Z,3.83
2018-01-14T07:05:37.269Z,3.95
2018-01-14T07:06:36.967Z,3.94
2018-01-14T07:07:36.710Z,3.98
2018-01-14T07:08:36.946Z,3.87
2018-01-14T07:09:37.199Z,4.01
2018-01-14T07:10:37.182Z,3.99
2018-01-14T07:11:37.180Z,4.05
2018-01-14T07:12:36.653Z,4.06
2018-01-14T07:13:37.180Z,4.23
2018-01-14T07:14:36.910Z,4.16
2018-01-14T07:15:37.148Z,4.19
2018-01-14T07:16:37.147Z,4.19
2018-01-14T07:17:37.123Z,4.13
2018-01-14T07:18:36.908Z,4.12
2018-01-14T07:19:36.862Z,4.19
2018-01-14T07:20:40.498Z,4.14
2018-01-14T07:21:37.087Z,4.2
2018-01-14T07:22:37.073Z,4.26
2018-01-14T07:23:37.083Z,4.35
2018-01-14T07:24:37.063Z,4.23
2018-01-14T07:25:36.792Z,4.23
2018-01-14T07:26:37.044Z,4.22
2018-01-14T07:27:37.027Z,4.24
2018-01-14T07:28:36.759Z,4.13
2018-01-14T07:29:36.764Z,4.13
2018-01-14T07:30:37.151Z,4.19
2018-01-14T07:31:36.747Z,4.1
2018-01-14T07:32:36.981Z,4.08
2018-01-14T07:33:36.979Z,4.13
2018-01-14T07:34:36.708Z,4.05
2018-01-14T07:35:36.984Z,4.04
2018-01-14T07:36:36.454Z,4.14
2018-01-14T07:37:36.683Z,4.08
2018-01-14T07:38:36.929Z,4.06
2018-01-14T07:39:36.923Z,4.02
2018-01-14T07:40:36.655Z,4.05
2018-01-14T07:41:36.762Z,3.8
2018-01-14T07:42:36.890Z,3.87
2018-01-14T07:43:36.632Z,3.84
2018-01-14T07:44:36.870Z,3.81
2018-01-14T07:45:36.617Z,3.86
2018-01-14T07:46:36.862Z,3.8
2018-01-14T07:47:36.593Z,3.84
2018-01-14T07:48:36.588Z,3.8
2018-01-14T07:49:36.577Z,3.88
2018-01-14T07:50:36.821Z,3.76
2018-01-14T07:51:37.005Z,3.83
2018-01-14T07:52:36.796Z,3.84
2018-01-14T07:53:36.795Z,3.81
2018-01-14T07:54:36.531Z,3.91
2018-01-14T07:55:36.773Z,3.87
2018-01-14T07:56:36.543Z,3.99
2018-01-14T07:57:36.751Z,3.99
2018-01-14T07:58:36.750Z,3.95
2018-01-14T07:59:36.739Z,3.81
2018-01-14T08:00:36.736Z,4.01
2018-01-14T08:01:36.240Z,3.99
2018-01-14T08:02:36.721Z,3.94
2018-01-14T08:03:36.444Z,4.01
2018-01-14T08:04:36.450Z,3.84
2018-01-14T08:05:36.186Z,3.88
2018-01-14T08:06:37.472Z,3.88
2018-01-14T08:07:36.418Z,3.86
2018-01-14T08:08:36.439Z,3.87
2018-01-14T08:09:36.648Z,3.86
2018-01-14T08:10:36.392Z,3.88
2018-01-14T08:11:36.399Z,3.74
2018-01-14T08:12:36.130Z,3.73
2018-01-14T08:13:36.352Z,3.78
2018-01-14T08:14:36.103Z,3.78
2018-01-14T08:15:36.587Z,3.86
2018-01-14T08:16:36.348Z,3.84
2018-01-14T08:17:36.583Z,3.77
2018-01-14T08:18:36.069Z,3.8
2018-01-14T08:19:36.306Z,3.76
2018-01-14T08:20:36.546Z,3.77
2018-01-14T08:21:39.508Z,3.76
2018-01-14T08:22:36.544Z,3.68
2018-01-14T08:23:36.270Z,3.74
2018-01-14T08:24:36.526Z,3.76
2018-01-14T08:25:36.248Z,3.68
2018-01-14T08:26:36.510Z,3.68
2018-01-14T08:27:36.538Z,3.76
2018-01-14T08:28:35.968Z,3.73
2018-01-14T08:29:35.961Z,3.7
2018-01-14T08:30:36.460Z,3.78
2018-01-14T08:31:36.462Z,3.76
2018-01-14T08:32:35.929Z,3.84
2018-01-14T08:33:36.495Z,3.88
2018-01-14T08:34:36.416Z,3.88
2018-01-14T08:35:36.152Z,3.88
2018-01-14T08:37:36.136Z,3.91
2018-01-14T08:38:36.389Z,3.98
2018-01-14T08:39:36.126Z,3.92
2018-01-14T08:40:36.360Z,4.01
2018-01-14T08:41:36.119Z,4.06
2018-01-14T08:42:35.841Z,4.06
2018-01-14T08:43:36.346Z,4.08
2018-01-14T08:44:36.326Z,4.17
2018-01-14T08:45:36.073Z,4.14
2018-01-14T08:46:35.810Z,4.24
2018-01-14T08:47:35.805Z,4.28
2018-01-14T08:48:36.293Z,4.22
2018-01-14T08:49:36.289Z,4.24
2018-01-14T08:50:36.029Z,4.14
2018-01-14T08:51:36.026Z,4.19
2018-01-14T08:52:40.558Z,4.22
2018-01-14T08:53:35.995Z,4.12
2018-01-14T08:54:35.994Z,4.12
2018-01-14T08:55:36.311Z,3.99
2018-01-14T08:56:35.728Z,4.01
2018-01-14T08:57:36.216Z,4.02
2018-01-14T08:58:35.705Z,4.06
2018-01-14T08:59:35.707Z,3.99
2018-01-14T09:00:35.945Z,4.04
2018-01-14T09:01:36.190Z,4.08
2018-01-14T09:02:36.177Z,4.05
2018-01-14T09:03:35.654Z,4.04
2018-01-14T09:04:36.146Z,4.14
2018-01-14T09:05:35.887Z,4.12
2018-01-14T09:06:35.884Z,4.12
2018-01-14T09:07:36.937Z,4.23
2018-01-14T09:08:36.116Z,4.19
2018-01-14T09:09:36.109Z,4.22
2018-01-14T09:10:36.098Z,4.22
2018-01-14T09:11:35.853Z,4.16
2018-01-14T09:12:36.078Z,4.22
2018-01-14T09:13:36.072Z,4.24
2018-01-14T09:14:35.564Z,4.3
2018-01-14T09:15:36.054Z,4.35
2018-01-14T09:16:35.796Z,4.32
2018-01-14T09:17:36.042Z,4.37
2018-01-14T09:18:35.779Z,4.4
2018-01-14T09:19:36.017Z,4.49
2018-01-14T09:20:36.011Z,4.45
2018-01-14T09:21:36.005Z,4.52
2018-01-14T09:22:35.755Z,4.48
2018-01-14T09:23:35.731Z,4.62
2018-01-14T09:24:35.746Z,4.6
2018-01-14T09:25:35.965Z,4.73
2018-01-14T09:26:35.728Z,4.58
2018-01-14T09:27:35.958Z,4.48
2018-01-14T09:28:35.690Z,4.53
2018-01-14T09:29:35.968Z,4.5
2018-01-14T09:30:35.674Z,4.66
2018-01-14T09:31:35.675Z,4.62
2018-01-14T09:32:35.669Z,4.6
2018-01-14T09:33:35.649Z,4.52
2018-01-14T09:34:35.641Z,4.45
2018-01-14T09:35:35.631Z,4.38
2018-01-14T09:36:35.877Z,4.49
2018-01-14T09:37:35.365Z,4.52
2018-01-14T09:38:35.611Z,4.52
2018-01-14T09:39:35.609Z,4.49
2018-01-14T09:40:35.850Z,4.48
2018-01-14T09:41:35.658Z,4.5
2018-01-14T09:42:35.575Z,4.48
2018-01-14T09:43:35.812Z,4.48
2018-01-14T09:44:35.814Z,4.53
2018-01-14T09:45:35.800Z,4.59
2018-01-14T09:46:35.539Z,4.63
2018-01-14T09:47:35.279Z,4.77
2018-01-14T09:48:35.532Z,4.75
2018-01-14T09:49:35.260Z,4.74
2018-01-14T09:50:35.252Z,4.73
2018-01-14T09:51:35.246Z,4.7
2018-01-14T09:52:35.238Z,4.74
2018-01-14T09:53:37.086Z,4.7
2018-01-14T09:54:35.725Z,4.7
2018-01-14T09:55:35.471Z,4.67
2018-01-14T09:56:35.200Z,4.5
2018-01-14T09:57:35.194Z,4.5
2018-01-14T09:58:35.690Z,4.49
2018-01-14T09:59:35.178Z,4.38
2018-01-14T10:00:35.430Z,4.37
2018-01-14T10:01:35.158Z,4.34
2018-01-14T10:02:35.405Z,4.32
2018-01-14T10:03:35.393Z,4.35
2018-01-14T10:04:35.646Z,4.35
2018-01-14T10:05:35.629Z,4.35
2018-01-14T10:06:35.372Z,4.34
2018-01-14T10:07:35.368Z,4.34
2018-01-14T10:08:37.669Z,4.41
2018-01-14T10:09:35.596Z,4.55
2018-01-14T10:10:35.336Z,4.58
2018-01-14T10:11:35.090Z,4.53
2018-01-14T10:12:35.077Z,4.45
2018-01-14T10:13:35.059Z,4.48
2018-01-14T10:14:35.560Z,4.49
2018-01-14T10:15:35.042Z,4.44
2018-01-14T10:16:35.535Z,4.32
2018-01-14T10:17:35.277Z,4.4
2018-01-14T10:18:35.275Z,4.41
2018-01-14T10:19:35.258Z,4.48
2018-01-14T10:20:35.503Z,4.45
2018-01-14T10:21:35.239Z,4.45
2018-01-14T10:22:35.495Z,4.37
2018-01-14T10:52:57.984Z,4.5
2018-01-14T10:53:58.199Z,4.55
2018-01-14T10:54:58.205Z,4.58
2018-01-14T10:55:57.918Z,4.49
2018-01-14T10:56:57.892Z,4.53
2018-01-14T10:57:58.133Z,4.5
2018-01-14T10:58:57.870Z,4.56
2018-01-14T10:59:57.604Z,4.55
2018-01-14T11:00:57.872Z,4.5
2018-01-14T11:01:57.832Z,4.63
2018-01-14T11:02:58.075Z,4.75
2018-01-14T11:03:58.065Z,4.8
2018-01-14T11:04:57.806Z,4.82
2018-01-14T11:05:57.794Z,4.8
2018-01-14T11:06:58.033Z,4.8
2018-01-14T11:07:58.323Z,4.87
2018-01-14T11:08:58.077Z,4.94
2018-01-14T11:09:58.008Z,4.93
2018-01-14T11:10:57.498Z,4.87
2018-01-14T11:11:57.482Z,4.99
2018-01-14T11:12:57.730Z,4.94
2018-01-14T11:13:57.721Z,4.94
2018-01-14T11:14:57.959Z,4.82
2018-01-14T11:15:57.951Z,4.93
2018-01-14T11:16:57.706Z,4.89
2018-01-14T11:17:57.692Z,5.05
2018-01-14T11:18:57.920Z,5.08
2018-01-14T11:19:57.663Z,5.15
2018-01-14T11:20:57.666Z,5.07
2018-01-14T11:21:57.903Z,5.14
2018-01-14T11:22:57.745Z,5.14
2018-01-14T11:23:57.633Z,5.17
2018-01-14T11:24:57.630Z,5.12
2018-01-14T11:25:57.618Z,5.1
2018-01-14T11:26:57.605Z,5.1
2018-01-14T11:27:57.856Z,5.08
2018-01-14T11:28:57.590Z,5.14
2018-01-14T11:29:57.343Z,5.05
2018-01-14T11:30:57.824Z,5.05
2018-01-14T11:31:57.823Z,5.02
2018-01-14T11:32:57.556Z,5.08
2018-01-14T11:33:57.801Z,5.1
2018-01-14T11:34:57.560Z,4.99
2018-01-14T11:35:57.535Z,4.97
2018-01-14T11:36:57.539Z,5
2018-01-14T11:37:57.515Z,5.1
2018-01-14T11:38:57.539Z,5.14
2018-01-14T11:39:57.508Z,5.11
2018-01-14T11:40:57.741Z,5.18
2018-01-14T11:41:57.494Z,5.11
2018-01-14T11:42:57.731Z,5.3
2018-01-14T11:43:57.476Z,5.35
2018-01-14T11:44:57.209Z,5.36
2018-01-14T11:45:57.201Z,5.32
2018-01-14T11:46:57.443Z,5.29
2018-01-14T11:47:57.594Z,5.26
2018-01-14T11:48:57.212Z,5.25
2018-01-14T11:49:57.422Z,5.11
2018-01-14T11:50:57.420Z,5.17
2018-01-14T11:51:57.417Z,5.12
2018-01-14T11:52:57.450Z,5.12
2018-01-14T11:53:57.399Z,5.25
2018-01-14T11:54:57.636Z,5.26
2018-01-14T11:55:57.135Z,5.36
2018-01-14T11:56:57.388Z,5.43
2018-01-14T11:57:57.625Z,5.48
2018-01-14T11:58:57.116Z,5.43
2018-01-14T11:59:57.664Z,5.53
2018-01-14T12:00:57.085Z,5.47
2018-01-14T12:01:57.328Z,5.38
2018-01-14T12:02:57.358Z,5.38
2018-01-14T12:03:57.593Z,5.38
2018-01-14T12:04:57.325Z,5.35
2018-01-14T12:05:57.058Z,5.38
2018-01-14T12:06:57.306Z,5.28
2018-01-14T12:07:57.350Z,5.33
2018-01-14T12:08:57.531Z,5.36
2018-01-14T12:09:57.555Z,5.44
2018-01-14T12:10:57.533Z,5.28
2018-01-14T12:11:57.257Z,5.3
2018-01-14T12:12:57.512Z,5.26
2018-01-14T12:13:57.238Z,5.3
2018-01-14T12:14:57.240Z,5.25
2018-01-14T12:15:57.228Z,5.26
2018-01-14T12:16:57.019Z,5.28
2018-01-14T12:17:57.220Z,5.33
2018-01-14T12:18:57.211Z,5.32
2018-01-14T12:19:56.950Z,5.3
2018-01-14T12:20:57.456Z,5.29
2018-01-14T12:21:57.206Z,5.29
2018-01-14T12:22:57.478Z,5.26
2018-01-14T12:23:57.490Z,5.28
2018-01-14T12:24:56.915Z,5.18
2018-01-14T12:25:57.239Z,5.08
2018-01-14T12:26:56.951Z,5.14
2018-01-14T12:27:57.156Z,5.11
2018-01-14T12:28:57.166Z,5.11
2018-01-14T12:29:56.935Z,5.04
2018-01-14T12:30:56.898Z,5.04
2018-01-14T12:31:57.356Z,5.05
2018-01-14T12:32:57.105Z,5.07
2018-01-14T12:33:57.113Z,5.1
2018-01-14T12:34:57.099Z,5.11
2018-01-14T12:35:57.092Z,5.12
2018-01-14T12:36:57.080Z,5.18
2018-01-14T12:37:57.081Z,5.08
2018-01-14T12:38:57.059Z,5.17
2018-01-14T12:39:57.299Z,5.23
2018-01-14T12:40:57.286Z,5.15
2018-01-14T12:41:57.370Z,5.07
2018-01-14T12:42:57.032Z,5.05
2018-01-14T12:43:57.418Z,5
2018-01-14T12:44:56.850Z,5.02
2018-01-14T12:45:56.869Z,4.94
2018-01-14T12:46:57.156Z,4.94
2018-01-14T12:47:56.826Z,4.84
2018-01-14T12:48:57.524Z,4.9
2018-01-14T12:49:57.357Z,4.86
2018-01-14T12:50:57.407Z,4.82
2018-01-14T12:51:56.886Z,4.82
2018-01-14T12:52:57.073Z,4.84
2018-01-14T12:53:57.196Z,4.75
2018-01-14T12:54:56.818Z,4.74
2018-01-14T12:55:56.773Z,4.75
2018-01-14T12:56:57.011Z,4.68
2018-01-14T12:57:57.047Z,4.77
2018-01-14T12:58:57.340Z,4.77
2018-01-14T12:59:56.750Z,4.74
2018-01-14T13:00:57.373Z,4.73
2018-01-14T13:01:57.289Z,4.86
2018-01-14T13:02:57.044Z,4.89
2018-01-14T13:03:56.978Z,4.99
2018-01-14T13:04:57.185Z,4.8
2018-01-14T13:05:57.026Z,4.97
2018-01-14T13:06:56.933Z,5.04
2018-01-14T13:07:56.994Z,5
2018-01-14T13:09:01.088Z,5.07
2018-01-14T13:09:56.873Z,5.1
2018-01-14T13:10:57.101Z,5.1
2018-01-14T13:11:56.635Z,5.15
2018-01-14T13:12:56.895Z,5.14
2018-01-14T13:13:56.977Z,5.08
2018-01-14T13:14:56.869Z,5.12
2018-01-14T13:15:56.907Z,5.12
2018-01-14T13:16:56.752Z,5.17
2018-01-14T13:17:57.013Z,5.23
2018-01-14T13:18:57.793Z,5.26
2018-01-14T13:19:56.756Z,5.26
2018-01-14T13:20:56.484Z,5.36
2018-01-14T13:21:56.755Z,5.35
2018-01-14T13:22:56.696Z,5.53
2018-01-14T13:23:56.710Z,5.48
2018-01-14T13:24:56.442Z,5.53
2018-01-14T13:25:56.419Z,5.47
2018-01-14T13:26:56.704Z,5.39
2018-01-14T13:27:56.688Z,5.39
2018-01-14T13:28:56.671Z,5.35
2018-01-14T13:29:56.647Z,5.36
2018-01-14T13:30:56.884Z,5.29
2018-01-14T13:31:56.877Z,5.29
2018-01-14T13:32:56.886Z,5.28
2018-01-14T13:33:56.865Z,5.29
2018-01-14T13:34:56.353Z,5.28
2018-01-14T13:35:56.609Z,5.3
2018-01-14T13:36:56.600Z,5.29
2018-01-14T13:37:56.586Z,5.28
2018-01-14T13:38:56.831Z,5.28
2018-01-14T13:39:59.498Z,5.36
2018-01-14T13:40:56.319Z,5.36
2018-01-14T13:41:56.619Z,5.3
2018-01-14T13:42:56.551Z,5.3
2018-01-14T13:43:56.551Z,5.41
2018-01-14T13:44:56.287Z,5.43
2018-01-14T13:45:56.791Z,5.41
2018-01-14T13:46:56.789Z,5.41
2018-01-14T13:47:56.765Z,5.41
2018-01-14T13:48:56.278Z,5.47
2018-01-14T13:49:56.270Z,5.48
2018-01-14T13:50:56.734Z,5.33
2018-01-14T13:51:56.507Z,5.41
2018-01-14T13:52:56.227Z,5.38